EZY61JA EGKK-LGSK
Flight info
| Callsign | EZY61JA |
|---|---|
| Flight time | N/A |
| Altitude | 37000 |
| Route | ODVIK Y311 DVR UL9 KONAN DCT KOK DCT RITAX DCT EDISA DCT KUNOD DCT GEDSO DCT GIMIX DCT GORPA DCT DEVUL DCT LIKVI DCT REMSO DCT MEDUX UM867 KOGAT DCT ERANA DCT TSL UL617 IBIDI |
| Aircraft | A320/M-SDE3FGHIRWY/LB1 |
Departure
| Time | N/A |
|---|---|
| Airport | London Gatwick Airport (EGKK) |
Arrival
| Time | 2026-04-30 15:08 |
|---|---|
| Airport | Skiathos Island National Airport (LGSK) |
| Time | Latitude | Longitude | Altitude | Speed | Heading |
|---|---|---|---|---|---|
| 2026-04-30 13:32 | 46.79159 | 12.84280 | 39266 ft | 453 kts | 110° |
| 2026-04-30 13:33 | 46.76605 | 12.92691 | 39255 ft | 453 kts | 110° |
| 2026-04-30 13:34 | 46.72754 | 13.05286 | 39251 ft | 453 kts | 110° |
| 2026-04-30 13:35 | 46.67622 | 13.22086 | 39267 ft | 453 kts | 110° |
| 2026-04-30 13:36 | 46.62438 | 13.38847 | 39285 ft | 454 kts | 111° |
| 2026-04-30 13:36 | 46.58542 | 13.51391 | 39301 ft | 454 kts | 111° |
| 2026-04-30 13:37 | 46.54634 | 13.63932 | 39283 ft | 455 kts | 111° |
| 2026-04-30 13:38 | 46.50216 | 13.76105 | 39289 ft | 459 kts | 120° |
| 2026-04-30 13:39 | 46.43261 | 13.91679 | 39319 ft | 460 kts | 120° |
| 2026-04-30 13:40 | 46.38032 | 14.03344 | 39319 ft | 461 kts | 120° |
| 2026-04-30 13:40 | 46.34535 | 14.11130 | 39328 ft | 461 kts | 120° |
| 2026-04-30 13:41 | 46.31028 | 14.18894 | 39349 ft | 461 kts | 121° |
| 2026-04-30 13:41 | 46.27515 | 14.26653 | 39342 ft | 461 kts | 121° |
| 2026-04-30 13:42 | 46.23990 | 14.34419 | 39343 ft | 462 kts | 121° |
| 2026-04-30 13:42 | 46.18680 | 14.46068 | 39340 ft | 463 kts | 121° |
| 2026-04-30 13:43 | 46.15137 | 14.53827 | 39354 ft | 463 kts | 121° |
| 2026-04-30 13:43 | 46.11586 | 14.61586 | 39348 ft | 463 kts | 121° |
| 2026-04-30 13:44 | 46.08033 | 14.69333 | 39345 ft | 464 kts | 121° |
| 2026-04-30 13:44 | 46.04490 | 14.77025 | 39351 ft | 464 kts | 121° |
| 2026-04-30 13:45 | 45.99123 | 14.88620 | 39360 ft | 464 kts | 122° |
| 2026-04-30 13:46 | 45.95530 | 14.96356 | 39352 ft | 465 kts | 122° |
| 2026-04-30 13:46 | 45.91935 | 15.04099 | 39358 ft | 466 kts | 122° |
| 2026-04-30 13:47 | 45.88329 | 15.11840 | 39357 ft | 466 kts | 122° |
| 2026-04-30 13:47 | 45.84709 | 15.19585 | 39377 ft | 467 kts | 122° |
| 2026-04-30 13:48 | 45.81084 | 15.27316 | 39364 ft | 467 kts | 122° |
| 2026-04-30 13:48 | 45.77435 | 15.35015 | 39359 ft | 468 kts | 125° |
| 2026-04-30 13:49 | 45.73298 | 15.42237 | 39358 ft | 469 kts | 128° |
| 2026-04-30 13:49 | 45.69129 | 15.49416 | 39363 ft | 469 kts | 128° |
| 2026-04-30 13:50 | 45.64946 | 15.56586 | 39365 ft | 470 kts | 128° |
| 2026-04-30 13:50 | 45.58656 | 15.67324 | 39367 ft | 470 kts | 128° |
| 2026-04-30 13:51 | 45.54459 | 15.74464 | 39364 ft | 470 kts | 128° |
| 2026-04-30 13:51 | 45.50260 | 15.81612 | 39377 ft | 470 kts | 129° |
| 2026-04-30 13:52 | 45.46054 | 15.88745 | 39371 ft | 470 kts | 129° |
| 2026-04-30 13:52 | 45.41840 | 15.95874 | 39352 ft | 471 kts | 129° |
| 2026-04-30 13:53 | 45.37611 | 16.02998 | 39334 ft | 472 kts | 129° |
| 2026-04-30 13:53 | 45.33372 | 16.10131 | 39349 ft | 472 kts | 129° |
| 2026-04-30 13:54 | 45.29146 | 16.17222 | 39345 ft | 473 kts | 129° |
| 2026-04-30 13:54 | 45.24855 | 16.24409 | 39348 ft | 474 kts | 129° |
| 2026-04-30 13:55 | 45.20586 | 16.31547 | 39343 ft | 474 kts | 129° |
| 2026-04-30 13:55 | 45.16309 | 16.38664 | 39349 ft | 475 kts | 129° |
| 2026-04-30 13:56 | 45.12013 | 16.45774 | 39341 ft | 475 kts | 130° |
| 2026-04-30 13:56 | 45.07636 | 16.52797 | 39343 ft | 476 kts | 131° |
| 2026-04-30 13:57 | 45.03202 | 16.59749 | 39348 ft | 476 kts | 131° |
| 2026-04-30 13:57 | 44.98771 | 16.66697 | 39359 ft | 476 kts | 131° |
| 2026-04-30 13:58 | 44.92141 | 16.77152 | 39330 ft | 477 kts | 131° |
| 2026-04-30 13:59 | 44.87710 | 16.84124 | 39344 ft | 477 kts | 131° |
| 2026-04-30 13:59 | 44.83272 | 16.91075 | 39354 ft | 477 kts | 131° |
| 2026-04-30 14:00 | 44.78829 | 16.98008 | 39358 ft | 477 kts | 132° |
| 2026-04-30 14:00 | 44.72157 | 17.08398 | 39358 ft | 477 kts | 132° |
| 2026-04-30 14:01 | 44.67707 | 17.15317 | 39356 ft | 477 kts | 132° |
| 2026-04-30 14:01 | 44.63245 | 17.22229 | 39345 ft | 477 kts | 132° |
| 2026-04-30 14:02 | 44.58777 | 17.29126 | 39343 ft | 477 kts | 132° |
| 2026-04-30 14:02 | 44.54307 | 17.36027 | 39342 ft | 477 kts | 132° |
| 2026-04-30 14:03 | 44.49872 | 17.42854 | 39333 ft | 477 kts | 132° |
| 2026-04-30 14:03 | 44.45394 | 17.49722 | 39333 ft | 477 kts | 132° |
| 2026-04-30 14:04 | 44.40926 | 17.56555 | 39327 ft | 476 kts | 133° |
| 2026-04-30 14:04 | 44.36446 | 17.63389 | 39319 ft | 476 kts | 133° |
| 2026-04-30 14:05 | 44.31964 | 17.70204 | 39317 ft | 476 kts | 133° |
| 2026-04-30 14:05 | 44.27489 | 17.77011 | 39312 ft | 476 kts | 133° |
| 2026-04-30 14:06 | 44.20736 | 17.87256 | 39309 ft | 476 kts | 133° |
| 2026-04-30 14:07 | 44.13993 | 17.97412 | 39274 ft | 476 kts | 134° |
| 2026-04-30 14:08 | 44.07269 | 18.07514 | 39297 ft | 476 kts | 134° |
| 2026-04-30 14:08 | 44.00496 | 18.17617 | 39292 ft | 477 kts | 134° |
| 2026-04-30 14:09 | 43.95969 | 18.24349 | 39288 ft | 477 kts | 134° |
| 2026-04-30 14:10 | 43.89936 | 18.33324 | 39291 ft | 477 kts | 134° |
| 2026-04-30 14:10 | 43.85401 | 18.40042 | 39273 ft | 477 kts | 135° |
| 2026-04-30 14:11 | 43.80855 | 18.46753 | 39273 ft | 478 kts | 135° |
| 2026-04-30 14:11 | 43.76296 | 18.53467 | 39276 ft | 478 kts | 135° |
| 2026-04-30 14:12 | 43.71734 | 18.60178 | 39289 ft | 479 kts | 135° |
| 2026-04-30 14:12 | 43.67166 | 18.66883 | 39281 ft | 479 kts | 135° |
| 2026-04-30 14:13 | 43.62589 | 18.73575 | 39265 ft | 479 kts | 135° |
| 2026-04-30 14:13 | 43.58010 | 18.80269 | 39268 ft | 480 kts | 135° |
| 2026-04-30 14:14 | 43.53419 | 18.86948 | 39275 ft | 480 kts | 135° |
| 2026-04-30 14:14 | 43.48818 | 18.93631 | 39282 ft | 481 kts | 135° |
| 2026-04-30 14:15 | 43.44218 | 19.00347 | 39271 ft | 481 kts | 135° |
| 2026-04-30 14:15 | 43.39682 | 19.07124 | 39279 ft | 482 kts | 134° |
| 2026-04-30 14:16 | 43.35164 | 19.13923 | 39275 ft | 482 kts | 135° |
| 2026-04-30 14:16 | 43.30613 | 19.20692 | 39277 ft | 482 kts | 135° |
| 2026-04-30 14:17 | 43.26040 | 19.27433 | 39288 ft | 482 kts | 135° |
| 2026-04-30 14:17 | 43.21454 | 19.34178 | 39291 ft | 483 kts | 135° |
| 2026-04-30 14:18 | 43.16883 | 19.40921 | 39293 ft | 483 kts | 135° |
| 2026-04-30 14:18 | 43.10021 | 19.51017 | 39306 ft | 483 kts | 135° |
| 2026-04-30 14:19 | 43.03135 | 19.61063 | 39299 ft | 482 kts | 135° |
| 2026-04-30 14:20 | 42.98549 | 19.67746 | 39301 ft | 482 kts | 135° |
| 2026-04-30 14:20 | 42.91659 | 19.77751 | 39297 ft | 482 kts | 136° |
| 2026-04-30 14:21 | 42.87097 | 19.84371 | 39302 ft | 482 kts | 136° |
| 2026-04-30 14:22 | 42.80169 | 19.94385 | 39285 ft | 482 kts | 136° |
| 2026-04-30 14:22 | 42.73313 | 20.04329 | 39284 ft | 483 kts | 134° |
| 2026-04-30 14:23 | 42.64807 | 20.18532 | 39282 ft | 484 kts | 131° |
| 2026-04-30 14:24 | 42.58431 | 20.29180 | 39264 ft | 484 kts | 132° |
| 2026-04-30 14:25 | 42.49798 | 20.43231 | 39280 ft | 485 kts | 133° |
| 2026-04-30 14:26 | 42.43324 | 20.53781 | 39280 ft | 485 kts | 133° |
| 2026-04-30 14:27 | 42.36853 | 20.64335 | 39282 ft | 486 kts | 133° |
| 2026-04-30 14:27 | 42.32525 | 20.71352 | 39283 ft | 486 kts | 133° |
| 2026-04-30 14:28 | 42.26014 | 20.81854 | 39276 ft | 486 kts | 133° |
| 2026-04-30 14:28 | 42.21669 | 20.88838 | 39283 ft | 485 kts | 133° |
| 2026-04-30 14:29 | 42.13737 | 21.01578 | 39279 ft | 484 kts | 133° |
| 2026-04-30 14:31 | 42.01050 | 21.18506 | 39254 ft | 481 kts | 140° |
| 2026-04-30 14:31 | 41.93746 | 21.27762 | 39243 ft | 482 kts | 141° |
| 2026-04-30 14:32 | 41.86420 | 21.37008 | 39240 ft | 482 kts | 140° |
| 2026-04-30 14:33 | 41.81536 | 21.43161 | 39236 ft | 482 kts | 141° |
| 2026-04-30 14:33 | 41.74206 | 21.52363 | 39205 ft | 482 kts | 141° |
| 2026-04-30 14:34 | 41.69317 | 21.58487 | 39217 ft | 481 kts | 141° |
| 2026-04-30 14:34 | 41.64407 | 21.64610 | 39216 ft | 482 kts | 141° |
| 2026-04-30 14:35 | 41.57080 | 21.73721 | 39219 ft | 482 kts | 141° |
| 2026-04-30 14:36 | 41.52144 | 21.79851 | 39219 ft | 482 kts | 141° |
| 2026-04-30 14:36 | 41.47239 | 21.85932 | 39200 ft | 481 kts | 142° |
| 2026-04-30 14:37 | 41.42364 | 21.91955 | 39208 ft | 481 kts | 142° |
| 2026-04-30 14:37 | 41.37453 | 21.98023 | 39211 ft | 481 kts | 142° |
| 2026-04-30 14:38 | 41.32545 | 22.04076 | 39207 ft | 481 kts | 142° |
| 2026-04-30 14:38 | 41.27629 | 22.10108 | 39193 ft | 481 kts | 142° |
| 2026-04-30 14:39 | 41.22709 | 22.16136 | 39168 ft | 481 kts | 142° |
| 2026-04-30 14:39 | 41.17793 | 22.22165 | 39158 ft | 480 kts | 142° |
| 2026-04-30 14:40 | 41.10218 | 22.30776 | 39150 ft | 476 kts | 147° |
| 2026-04-30 14:40 | 41.05021 | 22.36178 | 39122 ft | 475 kts | 147° |
| 2026-04-30 14:41 | 40.99845 | 22.41627 | 39103 ft | 475 kts | 147° |
| 2026-04-30 14:41 | 40.94712 | 22.47128 | 39087 ft | 475 kts | 146° |
| 2026-04-30 14:42 | 40.89591 | 22.52635 | 39084 ft | 474 kts | 146° |
| 2026-04-30 14:42 | 40.84114 | 22.57196 | 39086 ft | 462 kts | 160° |
| 2026-04-30 14:43 | 40.78351 | 22.60928 | 39076 ft | 461 kts | 160° |
| 2026-04-30 14:43 | 40.72581 | 22.64642 | 39059 ft | 461 kts | 160° |
| 2026-04-30 14:44 | 40.66807 | 22.68345 | 39059 ft | 461 kts | 160° |
| 2026-04-30 14:44 | 40.61075 | 22.72018 | 39057 ft | 462 kts | 160° |
| 2026-04-30 14:45 | 40.55292 | 22.75720 | 39058 ft | 462 kts | 160° |
| 2026-04-30 14:45 | 40.49507 | 22.79418 | 38673 ft | 466 kts | 160° |
| 2026-04-30 14:46 | 40.46556 | 22.81298 | 37640 ft | 474 kts | 160° |
| 2026-04-30 14:46 | 40.43588 | 22.83189 | 36940 ft | 474 kts | 160° |
| 2026-04-30 14:46 | 40.40633 | 22.85077 | 36338 ft | 469 kts | 160° |
| 2026-04-30 14:46 | 40.38697 | 22.86316 | 35501 ft | 469 kts | 160° |
| 2026-04-30 14:47 | 40.34759 | 22.88826 | 34006 ft | 469 kts | 160° |
| 2026-04-30 14:47 | 40.31838 | 22.90685 | 32939 ft | 463 kts | 160° |
| 2026-04-30 14:47 | 40.28958 | 22.92518 | 31924 ft | 457 kts | 160° |
| 2026-04-30 14:47 | 40.26115 | 22.94325 | 30955 ft | 452 kts | 160° |
| 2026-04-30 14:48 | 40.23305 | 22.96108 | 30064 ft | 446 kts | 159° |
| 2026-04-30 14:48 | 40.20528 | 22.97863 | 29123 ft | 441 kts | 160° |
| 2026-04-30 14:48 | 40.17785 | 22.99594 | 28170 ft | 434 kts | 160° |
| 2026-04-30 14:48 | 40.15091 | 23.01294 | 27343 ft | 425 kts | 160° |
| 2026-04-30 14:49 | 40.12490 | 23.02941 | 26955 ft | 406 kts | 160° |
| 2026-04-30 14:49 | 40.09999 | 23.04520 | 26465 ft | 391 kts | 160° |
| 2026-04-30 14:49 | 40.07564 | 23.06059 | 26009 ft | 387 kts | 160° |
| 2026-04-30 14:49 | 40.05172 | 23.07561 | 25529 ft | 386 kts | 160° |
| 2026-04-30 14:50 | 40.00347 | 23.10581 | 24548 ft | 384 kts | 160° |
| 2026-04-30 14:50 | 39.97943 | 23.12085 | 24041 ft | 383 kts | 160° |
| 2026-04-30 14:51 | 39.93137 | 23.15090 | 22974 ft | 382 kts | 160° |
| 2026-04-30 14:51 | 39.91556 | 23.16081 | 22650 ft | 380 kts | 160° |
| 2026-04-30 14:51 | 39.86808 | 23.19058 | 21678 ft | 377 kts | 160° |
| 2026-04-30 14:52 | 39.84455 | 23.20532 | 21195 ft | 375 kts | 160° |
| 2026-04-30 14:52 | 39.79760 | 23.23466 | 20225 ft | 373 kts | 160° |
| 2026-04-30 14:52 | 39.77426 | 23.24919 | 19772 ft | 371 kts | 160° |
| 2026-04-30 14:53 | 39.72779 | 23.27808 | 18849 ft | 369 kts | 160° |
| 2026-04-30 14:53 | 39.70461 | 23.29248 | 18384 ft | 369 kts | 160° |
| 2026-04-30 14:54 | 39.65907 | 23.32086 | 17434 ft | 351 kts | 160° |
| 2026-04-30 14:54 | 39.61678 | 23.34741 | 16618 ft | 328 kts | 161° |
| 2026-04-30 14:55 | 39.57542 | 23.37294 | 15816 ft | 330 kts | 161° |
| 2026-04-30 14:55 | 39.55470 | 23.38568 | 15403 ft | 330 kts | 161° |
| 2026-04-30 14:55 | 39.51321 | 23.41122 | 14631 ft | 331 kts | 161° |
| 2026-04-30 14:56 | 39.47156 | 23.43696 | 13825 ft | 332 kts | 160° |
| 2026-04-30 14:56 | 39.42998 | 23.46273 | 12977 ft | 330 kts | 160° |
| 2026-04-30 14:57 | 39.40930 | 23.47549 | 12579 ft | 328 kts | 160° |
| 2026-04-30 14:57 | 39.36838 | 23.50067 | 11751 ft | 325 kts | 160° |
| 2026-04-30 14:58 | 39.32816 | 23.52539 | 10914 ft | 313 kts | 160° |
| 2026-04-30 14:58 | 39.30891 | 23.53728 | 10508 ft | 300 kts | 159° |
| 2026-04-30 14:58 | 39.27263 | 23.55969 | 9719 ft | 279 kts | 160° |
| 2026-04-30 14:59 | 39.23891 | 23.58040 | 8960 ft | 258 kts | 160° |
| 2026-04-30 15:00 | 39.19207 | 23.60714 | 7892 ft | 235 kts | 174° |
| 2026-04-30 15:00 | 39.16084 | 23.60290 | 7208 ft | 223 kts | 209° |
| 2026-04-30 15:01 | 39.13403 | 23.58531 | 6527 ft | 213 kts | 211° |
| 2026-04-30 15:01 | 39.12091 | 23.57677 | 6182 ft | 209 kts | 210° |
| 2026-04-30 15:01 | 39.09546 | 23.56022 | 5510 ft | 201 kts | 210° |
| 2026-04-30 15:02 | 39.08313 | 23.55219 | 5212 ft | 195 kts | 209° |
| 2026-04-30 15:02 | 39.07135 | 23.54452 | 4897 ft | 186 kts | 209° |
| 2026-04-30 15:03 | 39.03881 | 23.52334 | 4009 ft | 167 kts | 208° |
| 2026-04-30 15:03 | 39.02160 | 23.50496 | 3609 ft | 164 kts | 246° |
| 2026-04-30 15:04 | 39.02368 | 23.47672 | 3270 ft | 169 kts | 304° |
| 2026-04-30 15:04 | 39.05600 | 23.46794 | 2731 ft | 169 kts | 14° |
| 2026-04-30 15:05 | 39.08658 | 23.47682 | 2222 ft | 139 kts | 16° |
| 2026-04-30 15:06 | 39.10552 | 23.48208 | 1686 ft | 141 kts | 10° |
| 2026-04-30 15:06 | 39.12498 | 23.48314 | 1079 ft | 137 kts | 8° |
| 2026-04-30 15:07 | 39.14288 | 23.48898 | 606 ft | 129 kts | 20° |
| 2026-04-30 15:07 | 39.15983 | 23.49608 | 279 ft | 128 kts | 19° |
| 2026-04-30 15:08 | 39.17587 | 23.50314 | 41 ft | 89 kts | 19° |
| 2026-04-30 15:08 | 39.17926 | 23.50384 | 42 ft | 3 kts | 252° |
| 2026-04-30 15:09 | 39.17921 | 23.50366 | 40 ft | 0 kts | 251° |
| 2026-04-30 15:11 | 39.17868 | 23.50248 | 38 ft | 4 kts | 289° |
| 2026-04-30 15:11 | 39.17875 | 23.50224 | 39 ft | 0 kts | 289° |
| 2026-04-30 15:17 | 39.17875 | 23.50223 | 39 ft | 0 kts | 289° |